Time;durP1;ratioP1;P1;durP2;ratioP2;P2;SDS_P1;SDS_P2;PMS_P1;PMS_P2;Temp;Humidity;BMP_temperature;BMP_pressure;BME280_temperature;BME280_humidity;BME280_pressure;Samples;Min_cycle;Max_cycle;Signal;HPM_P1;HPM_P2
2021/12/15 00:02:20;;;;;;;44.58;40.05;;;7.40;93.40;;;;;;5073305;28;20231;-73
2021/12/15 00:04:50;;;;;;;46.88;41.78;;;7.50;94.30;;;;;;5073019;28;20219;-73
2021/12/15 00:07:17;;;;;;;48.80;43.50;;;7.40;94.20;;;;;;5073470;28;20693;-73
2021/12/15 00:09:44;;;;;;;45.70;41.22;;;7.40;94.50;;;;;;5073226;28;20278;-73
2021/12/15 00:12:13;;;;;;;47.72;43.00;;;7.40;94.10;;;;;;5072958;28;20299;-73
2021/12/15 00:14:41;;;;;;;48.40;43.35;;;7.40;94.30;;;;;;5072808;28;20586;-73
2021/12/15 00:17:08;;;;;;;47.15;42.45;;;7.40;94.10;;;;;;5072953;28;20309;-73
2021/12/15 00:19:39;;;;;;;45.88;41.10;;;7.40;94.00;;;;;;5072012;28;20646;-73
2021/12/15 00:22:06;;;;;;;46.15;41.55;;;7.40;94.70;;;;;;5072989;28;20279;-72
2021/12/15 00:24:34;;;;;;;43.88;39.25;;;7.40;95.70;;;;;;5072658;28;20247;-73
2021/12/15 00:27:02;;;;;;;42.08;38.03;;;7.40;95.10;;;;;;5072853;28;20203;-73
2021/12/15 00:29:29;;;;;;;48.05;42.85;;;7.50;95.00;;;;;;5072833;28;20284;-73
2021/12/15 00:31:57;;;;;;;47.30;42.15;;;7.60;94.80;;;;;;5072843;28;20234;-72
2021/12/15 00:34:24;;;;;;;47.55;42.58;;;7.50;94.70;;;;;;5072489;28;20224;-72
2021/12/15 00:36:53;;;;;;;45.53;39.10;;;7.50;94.70;;;;;;5072803;28;20286;-73
2021/12/15 00:39:22;;;;;;;44.05;39.78;;;7.60;95.20;;;;;;5072518;28;20307;-73
2021/12/15 00:41:50;;;;;;;43.17;38.78;;;7.60;95.30;;;;;;5072735;28;20235;-73
2021/12/15 00:44:17;;;;;;;43.42;38.78;;;7.50;95.10;;;;;;5071983;28;20689;-73
2021/12/15 00:46:45;;;;;;;42.33;37.72;;;7.50;95.00;;;;;;5072818;28;20246;-73
2021/12/15 00:49:13;;;;;;;44.45;39.70;;;7.50;94.80;;;;;;5072227;28;20654;-72
2021/12/15 00:51:40;;;;;;;43.08;38.58;;;7.60;94.40;;;;;;5072763;28;20279;-72
2021/12/15 00:54:09;;;;;;;43.13;38.63;;;7.60;94.70;;;;;;5072218;28;20216;-73
2021/12/15 00:56:37;;;;;;;45.42;40.15;;;7.60;94.40;;;;;;5072526;28;20234;-73
2021/12/15 00:59:05;;;;;;;51.85;40.30;;;7.50;94.60;;;;;;5072460;28;20226;-73
2021/12/15 01:01:32;;;;;;;43.08;38.05;;;7.60;94.50;;;;;;5072485;28;20203;-72
2021/12/15 01:03:59;;;;;;;42.63;38.42;;;7.50;94.70;;;;;;5072465;28;20311;-72
2021/12/15 01:06:28;;;;;;;42.30;37.80;;;7.70;94.00;;;;;;5072512;28;20695;-72
2021/12/15 01:09:00;;;;;;;39.70;35.70;;;7.60;94.10;;;;;;5072471;28;20256;-73
2021/12/15 01:11:46;;;;;;;39.55;35.67;;;7.50;94.60;;;;;;5072492;28;20206;-73
2021/12/15 01:14:34;;;;;;;34.63;31.23;;;7.50;94.60;;;;;;5072198;28;20223;-73
2021/12/15 01:19:53;;;;;;;32.58;29.83;;;7.40;94.70;;;;;;5072408;28;20611;-73
2021/12/15 01:22:28;;;;;;;32.38;29.65;;;7.30;95.60;;;;;;5072650;28;20188;-73
2021/12/15 01:25:01;;;;;;;31.75;28.85;;;7.20;95.70;;;;;;5072062;28;20223;-73
2021/12/15 01:27:30;;;;;;;36.78;33.40;;;7.20;95.80;;;;;;5072185;28;20287;-73
2021/12/15 01:29:57;;;;;;;38.28;34.65;;;7.10;96.30;;;;;;5072200;28;20283;-72
2021/12/15 01:32:24;;;;;;;37.30;33.80;;;7.20;96.40;;;;;;5076073;28;20282;-73
2021/12/15 01:34:51;;;;;;;39.58;35.83;;;7.20;96.30;;;;;;5075907;28;20247;-72
2021/12/15 01:37:18;;;;;;;39.20;35.15;;;7.20;96.60;;;;;;5076185;28;20276;-73
2021/12/15 01:39:45;;;;;;;39.67;35.67;;;7.30;96.10;;;;;;5075852;28;20223;-72
2021/12/15 01:42:13;;;;;;;40.33;36.45;;;7.30;95.80;;;;;;5075609;28;20232;-72
2021/12/15 01:47:26;;;;;;;38.20;34.65;;;7.40;96.20;;;;;;5075873;28;20199;-72
2021/12/15 01:49:54;;;;;;;36.75;33.30;;;7.40;95.40;;;;;;5075713;28;20275;-73
2021/12/15 01:52:24;;;;;;;38.60;34.80;;;7.30;95.70;;;;;;5075792;28;20222;-72
2021/12/15 01:54:53;;;;;;;40.33;36.15;;;7.30;95.80;;;;;;5075444;28;20311;-72
2021/12/15 01:57:22;;;;;;;40.90;36.85;;;7.30;96.20;;;;;;5075766;28;20231;-72
2021/12/15 01:59:51;;;;;;;37.65;34.15;;;7.40;96.50;;;;;;5075548;28;20311;-73
2021/12/15 02:02:19;;;;;;;38.42;34.78;;;7.30;96.40;;;;;;5075574;28;20227;-73
2021/12/15 02:04:46;;;;;;;38.92;35.22;;;7.30;96.10;;;;;;5075221;28;20645;-72
2021/12/15 02:07:16;;;;;;;37.28;33.88;;;7.40;96.20;;;;;;5075420;28;20283;-73
2021/12/15 02:12:34;;;;;;;40.35;36.28;;;7.50;95.10;;;;;;5075195;28;20279;-73
2021/12/15 02:15:07;;;;;;;38.88;35.15;;;7.60;95.10;;;;;;5075135;28;20242;-73
2021/12/15 02:17:34;;;;;;;39.17;35.50;;;7.50;95.50;;;;;;5075431;28;20282;-73
2021/12/15 02:20:01;;;;;;;38.88;35.05;;;7.50;95.40;;;;;;5075236;28;20749;-73
2021/12/15 02:22:31;;;;;;;38.85;35.13;;;7.50;95.50;;;;;;5075114;28;20219;-73
2021/12/15 02:24:58;;;;;;;39.67;35.88;;;7.50;95.30;;;;;;5075043;28;20707;-73
2021/12/15 02:27:31;;;;;;;39.13;34.90;;;7.60;95.30;;;;;;5075146;28;20239;-73
2021/12/15 02:30:06;;;;;;;36.80;33.25;;;7.50;96.00;;;;;;5074996;28;20650;-73
2021/12/15 02:32:45;;;;;;;39.85;36.05;;;7.50;96.30;;;;;;5074987;28;20195;-73
2021/12/15 02:38:00;;;;;;;36.58;33.05;;;7.50;95.90;;;;;;5057497;28;20206;-73
2021/12/15 02:40:27;;;;;;;39.00;35.03;;;7.60;95.40;;;;;;5074617;28;20252;-72
2021/12/15 02:42:55;;;;;;;37.42;33.85;;;7.60;94.90;;;;;;5073206;28;20231;-72
2021/12/15 02:45:24;;;;;;;39.92;35.92;;;7.60;94.30;;;;;;5074864;28;20291;-73
2021/12/15 02:47:53;;;;;;;35.67;32.38;;;7.60;93.80;;;;;;5074361;28;20687;-72
2021/12/15 02:50:24;;;;;;;38.92;35.03;;;7.60;93.70;;;;;;5074846;28;20271;-72
2021/12/15 02:52:51;;;;;;;40.10;36.20;;;7.50;94.10;;;;;;5074540;28;20232;-72
2021/12/15 02:55:20;;;;;;;39.30;35.63;;;7.50;94.20;;;;;;5074415;28;20303;-73
2021/12/15 02:57:49;;;;;;;38.60;34.80;;;7.50;94.20;;;;;;5074604;28;20196;-73
2021/12/15 03:00:20;;;;;;;40.67;36.40;;;7.40;94.20;;;;;;5074458;28;20223;-73
2021/12/15 03:05:40;;;;;;;38.25;34.65;;;7.50;95.30;;;;;;5053092;28;20195;-73
2021/12/15 03:08:11;;;;;;;38.85;35.05;;;7.50;95.60;;;;;;5074361;28;20206;-73
2021/12/15 03:16:13;;;;;;;35.35;32.00;;;7.50;95.10;;;;;;5074420;28;20318;-72
2021/12/15 03:18:40;;;;;;;33.92;30.77;;;7.60;93.90;;;;;;5074047;28;20283;-72
2021/12/15 03:21:09;;;;;;;32.03;29.15;;;7.60;93.60;;;;;;5074089;28;20196;-72
2021/12/15 03:23:44;;;;;;;32.67;29.98;;;7.60;93.60;;;;;;5073788;28;20265;-72
2021/12/15 03:26:17;;;;;;;29.65;27.25;;;7.60;93.50;;;;;;5074062;28;20282;-73
2021/12/15 03:34:36;;;;;;;29.92;27.48;;;7.50;93.30;;;;;;5073701;28;20219;-73
2021/12/15 03:37:20;;;;;;;27.95;25.73;;;7.60;93.20;;;;;;5073754;28;20200;-73
2021/12/15 03:39:47;;;;;;;26.33;24.23;;;7.60;93.20;;;;;;5073500;28;20216;-73
2021/12/15 03:42:20;;;;;;;25.35;23.30;;;7.60;92.80;;;;;;5073484;28;20200;-73
2021/12/15 03:44:49;;;;;;;24.42;22.70;;;7.70;92.60;;;;;;5073503;28;20709;-73
2021/12/15 03:47:19;;;;;;;24.45;22.55;;;7.60;92.50;;;;;;5073687;28;20196;-72
2021/12/15 03:49:46;;;;;;;24.63;22.95;;;7.70;92.60;;;;;;5073338;28;20274;-72
2021/12/15 03:52:15;;;;;;;23.95;22.35;;;7.70;92.60;;;;;;5073486;28;20638;-72
2021/12/15 03:54:43;;;;;;;23.55;21.95;;;7.70;92.60;;;;;;5073115;28;20211;-72
2021/12/15 03:57:10;;;;;;;23.60;22.10;;;7.70;92.30;;;;;;5073361;28;20632;-72
2021/12/15 03:59:42;;;;;;;21.10;19.80;;;7.70;91.80;;;;;;5073076;28;20216;-72
2021/12/15 04:02:10;;;;;;;21.80;20.50;;;7.70;91.30;;;;;;5073246;28;20638;-72
2021/12/15 04:04:38;;;;;;;22.65;21.20;;;7.70;90.40;;;;;;5073107;28;20212;-72
2021/12/15 04:07:06;;;;;;;24.90;23.30;;;7.70;90.20;;;;;;5073292;28;20673;-73
2021/12/15 04:09:33;;;;;;;24.30;22.80;;;7.80;90.00;;;;;;5073341;28;20224;-72
2021/12/15 04:12:01;;;;;;;26.10;24.50;;;7.70;89.90;;;;;;5073199;28;20234;-72
2021/12/15 04:14:34;;;;;;;27.10;25.40;;;7.70;89.30;;;;;;5072804;28;20226;-72
2021/12/15 04:17:05;;;;;;;25.45;23.75;;;7.70;89.70;;;;;;5073197;28;20211;-72
2021/12/15 04:19:35;;;;;;;25.80;24.10;;;7.80;89.90;;;;;;5072986;28;20211;-72
2021/12/15 04:22:02;;;;;;;25.08;23.42;;;7.80;89.80;;;;;;5072968;28;20283;-72
2021/12/15 04:24:30;;;;;;;24.38;22.83;;;7.70;90.20;;;;;;5072740;28;20251;-72
2021/12/15 04:27:00;;;;;;;24.52;22.92;;;7.70;90.60;;;;;;5072829;28;20253;-72
2021/12/15 04:29:29;;;;;;;24.83;23.08;;;7.80;90.40;;;;;;5072811;28;20196;-72
2021/12/15 04:32:01;;;;;;;24.33;22.73;;;7.80;90.30;;;;;;5072886;28;20235;-72
2021/12/15 04:34:29;;;;;;;24.60;23.00;;;7.80;90.40;;;;;;5072837;28;20251;-72
2021/12/15 04:36:56;;;;;;;25.05;23.25;;;7.80;90.20;;;;;;5072848;28;20733;-72
2021/12/15 04:39:28;;;;;;;25.52;23.92;;;7.80;89.80;;;;;;5072501;28;20342;-72
2021/12/15 04:41:57;;;;;;;25.15;23.45;;;7.80;89.70;;;;;;5072652;28;20291;-72
2021/12/15 04:44:27;;;;;;;25.40;23.73;;;7.80;89.80;;;;;;5071883;28;20306;-72
2021/12/15 04:47:00;;;;;;;24.70;23.30;;;7.70;89.30;;;;;;5073085;28;20231;-72
2021/12/15 04:49:32;;;;;;;25.00;23.40;;;7.80;88.90;;;;;;5072239;28;20206;-72
2021/12/15 04:52:00;;;;;;;24.45;22.80;;;7.70;88.50;;;;;;5072531;28;20286;-72
2021/12/15 04:54:28;;;;;;;24.80;23.20;;;7.80;88.30;;;;;;5072450;28;20303;-72
2021/12/15 04:56:55;;;;;;;27.98;26.17;;;7.80;88.20;;;;;;5072611;28;20625;-72
2021/12/15 04:59:22;;;;;;;29.25;27.35;;;7.80;88.00;;;;;;5072479;28;20299;-72
2021/12/15 05:01:49;;;;;;;27.08;25.30;;;7.80;87.80;;;;;;5072483;28;20284;-72
2021/12/15 05:04:17;;;;;;;26.15;24.45;;;7.90;87.60;;;;;;5072248;28;20756;-73
2021/12/15 05:06:45;;;;;;;26.58;24.88;;;7.80;87.70;;;;;;5071969;28;20282;-73
2021/12/15 05:09:14;;;;;;;25.05;23.42;;;7.80;88.00;;;;;;5072390;28;20637;-73
2021/12/15 05:11:41;;;;;;;25.45;23.55;;;7.80;87.70;;;;;;5072520;28;20222;-73
2021/12/15 05:14:08;;;;;;;27.52;25.70;;;7.80;87.60;;;;;;5072063;28;20306;-73
2021/12/15 05:16:35;;;;;;;28.80;26.90;;;7.80;87.90;;;;;;5072309;28;20729;-72
2021/12/15 05:19:03;;;;;;;26.42;24.63;;;7.80;88.10;;;;;;5072251;28;20192;-73
2021/12/15 05:21:31;;;;;;;25.23;23.52;;;7.80;88.20;;;;;;5072200;28;20255;-72
2021/12/15 05:24:08;;;;;;;24.95;23.45;;;7.80;88.10;;;;;;5072113;28;20303;-73
2021/12/15 05:26:35;;;;;;;26.30;24.60;;;7.80;87.80;;;;;;5072558;28;20191;-73
2021/12/15 05:29:02;;;;;;;26.05;24.40;;;7.70;87.80;;;;;;5072187;28;20235;-72
2021/12/15 05:31:29;;;;;;;24.95;23.35;;;7.70;87.90;;;;;;5072305;28;20228;-72
2021/12/15 05:33:56;;;;;;;25.77;24.17;;;7.80;87.70;;;;;;5071979;28;20251;-73
2021/12/15 05:36:23;;;;;;;26.52;24.92;;;7.80;87.50;;;;;;5072267;28;20314;-72
2021/12/15 05:38:50;;;;;;;27.02;25.10;;;7.70;87.50;;;;;;5072295;28;20200;-72
2021/12/15 05:41:19;;;;;;;28.02;26.05;;;7.70;87.30;;;;;;5072232;28;20724;-72
2021/12/15 05:43:46;;;;;;;27.55;25.75;;;7.70;87.40;;;;;;5071464;28;20223;-72
2021/12/15 05:46:13;;;;;;;24.50;23.10;;;7.70;89.30;;;;;;5072224;28;20257;-73
2021/12/15 05:48:40;;;;;;;24.90;23.50;;;7.70;87.70;;;;;;5072039;28;20258;-72
2021/12/15 05:51:07;;;;;;;24.95;23.35;;;7.60;87.50;;;;;;5072079;28;20279;-73
2021/12/15 05:53:34;;;;;;;28.00;26.27;;;7.70;87.60;;;;;;5071820;28;20648;-73
2021/12/15 05:56:01;;;;;;;27.98;26.10;;;7.70;87.30;;;;;;5072096;28;20287;-73
2021/12/15 05:58:32;;;;;;;29.52;27.48;;;7.70;87.40;;;;;;5072112;28;20623;-73
2021/12/15 06:00:59;;;;;;;32.03;29.80;;;7.70;87.50;;;;;;5071932;28;20551;-73
2021/12/15 06:03:26;;;;;;;29.45;27.52;;;7.80;87.50;;;;;;5071732;28;20303;-73
2021/12/15 06:05:53;;;;;;;30.75;28.45;;;7.70;87.80;;;;;;5072056;28;20265;-73
2021/12/15 06:08:20;;;;;;;29.60;27.40;;;7.80;87.80;;;;;;5071818;28;20295;-73
2021/12/15 06:10:47;;;;;;;33.70;31.35;;;7.80;87.60;;;;;;5071817;28;20330;-72
2021/12/15 06:13:14;;;;;;;30.20;28.10;;;7.80;87.60;;;;;;5071499;28;20645;-72
2021/12/15 06:15:45;;;;;;;30.42;28.33;;;7.80;87.40;;;;;;5071799;28;20195;-73
2021/12/15 06:18:14;;;;;;;29.70;27.60;;;7.90;87.40;;;;;;5073379;28;20196;-73
2021/12/15 06:20:42;;;;;;;32.03;29.75;;;7.80;87.20;;;;;;5075150;28;20307;-72
2021/12/15 06:23:16;;;;;;;29.52;27.48;;;7.80;87.00;;;;;;5074947;28;20700;-73
2021/12/15 06:25:43;;;;;;;31.73;29.38;;;7.80;87.30;;;;;;5075157;28;20195;-73
2021/12/15 06:28:10;;;;;;;30.38;28.27;;;7.80;87.40;;;;;;5075295;28;20749;-73
2021/12/15 06:30:37;;;;;;;29.67;27.52;;;7.80;87.30;;;;;;5075053;28;20188;-73
2021/12/15 06:33:07;;;;;;;32.50;30.08;;;7.80;87.40;;;;;;5074775;28;20283;-73
2021/12/15 06:35:35;;;;;;;28.20;26.38;;;7.80;87.40;;;;;;5075127;28;20253;-72
2021/12/15 06:38:02;;;;;;;29.85;27.95;;;7.80;87.20;;;;;;5075026;28;20687;-73
2021/12/15 06:40:29;;;;;;;28.85;27.05;;;7.80;87.30;;;;;;5074732;28;20258;-73
2021/12/15 06:42:58;;;;;;;29.65;27.60;;;7.70;87.50;;;;;;5074179;28;20648;-73
2021/12/15 06:45:32;;;;;;;30.35;28.30;;;7.70;87.40;;;;;;5074804;28;20208;-73
2021/12/15 06:59:21;;;;;;;30.40;28.40;;;7.80;87.30;;;;;;5061161;28;20195;-72
2021/12/15 07:01:50;;;;;;;32.92;30.60;;;7.80;87.10;;;;;;5074355;28;20306;-73
2021/12/15 07:04:18;;;;;;;30.80;28.73;;;7.80;87.00;;;;;;5074255;28;20255;-73
2021/12/15 07:06:47;;;;;;;34.35;31.85;;;7.80;87.30;;;;;;5074488;28;20208;-73
2021/12/15 07:09:15;;;;;;;32.08;29.83;;;7.80;87.00;;;;;;5074336;28;20200;-72
2021/12/15 07:11:42;;;;;;;32.80;30.55;;;7.80;87.00;;;;;;5074375;28;20557;-73
2021/12/15 07:14:10;;;;;;;31.10;29.00;;;7.80;87.00;;;;;;5073914;28;20247;-72
2021/12/15 07:16:42;;;;;;;30.63;28.48;;;7.70;87.30;;;;;;5074376;28;20662;-72
2021/12/15 07:19:16;;;;;;;31.33;29.08;;;7.80;86.80;;;;;;5074301;28;20684;-72
2021/12/15 07:21:53;;;;;;;31.65;29.38;;;7.80;86.70;;;;;;5074295;28;20309;-72
2021/12/15 07:24:22;;;;;;;31.50;29.33;;;7.80;86.70;;;;;;5073842;28;20650;-72
2021/12/15 07:26:50;;;;;;;34.47;32.08;;;7.80;86.60;;;;;;5074023;28;20200;-73
2021/12/15 07:29:17;;;;;;;34.22;31.73;;;7.80;86.60;;;;;;5073387;28;20320;-72
2021/12/15 07:31:44;;;;;;;31.10;28.80;;;7.70;86.80;;;;;;5073903;28;20230;-73
2021/12/15 07:34:11;;;;;;;31.23;28.92;;;7.80;87.00;;;;;;5073365;28;20298;-73
2021/12/15 07:36:38;;;;;;;33.47;30.88;;;7.70;87.10;;;;;;5073971;28;20250;-72
2021/12/15 07:39:10;;;;;;;34.03;31.27;;;7.60;88.40;;;;;;5073803;28;20279;-72
2021/12/15 07:41:48;;;;;;;34.60;32.10;;;7.60;88.20;;;;;;5073640;28;20306;-72
2021/12/15 07:44:16;;;;;;;34.70;32.13;;;7.70;88.00;;;;;;5073059;28;20273;-73
2021/12/15 07:46:44;;;;;;;33.35;30.90;;;7.70;87.50;;;;;;5073611;28;20624;-73
2021/12/15 07:49:12;;;;;;;35.25;32.63;;;7.80;87.30;;;;;;5073235;28;20290;-73
2021/12/15 07:51:41;;;;;;;34.95;32.38;;;7.80;87.10;;;;;;5073537;28;20230;-73
2021/12/15 07:54:08;;;;;;;35.17;32.58;;;7.70;88.20;;;;;;5073106;28;20242;-73
2021/12/15 07:56:35;;;;;;;35.33;32.45;;;7.70;88.10;;;;;;5073374;28;20606;-73
2021/12/15 07:59:04;;;;;;;33.47;31.02;;;7.70;87.90;;;;;;5073347;28;20235;-73
2021/12/15 08:01:31;;;;;;;35.17;32.58;;;7.80;87.40;;;;;;5073196;28;20302;-72
2021/12/15 08:03:58;;;;;;;34.80;32.03;;;7.80;86.90;;;;;;5072993;28;20713;-72
2021/12/15 08:06:28;;;;;;;35.95;33.15;;;7.90;86.90;;;;;;5073408;28;20202;-73
2021/12/15 08:08:56;;;;;;;32.03;29.63;;;8.00;86.50;;;;;;5073281;28;20227;-73
2021/12/15 08:11:24;;;;;;;34.13;31.42;;;8.00;86.00;;;;;;5073154;28;20199;-72
2021/12/15 08:13:50;;;;;;;32.72;30.17;;;8.00;86.10;;;;;;5072723;28;20270;-73
2021/12/15 08:16:19;;;;;;;32.97;30.63;;;7.90;87.10;;;;;;5073172;28;20658;-73
2021/12/15 08:18:47;;;;;;;31.45;29.15;;;8.00;86.60;;;;;;5073033;28;20253;-72
2021/12/15 08:21:15;;;;;;;31.83;29.52;;;8.00;86.10;;;;;;5072832;28;20302;-73
2021/12/15 08:23:42;;;;;;;30.08;27.98;;;8.10;85.20;;;;;;5072674;28;20298;-73
2021/12/15 08:26:10;;;;;;;31.45;29.20;;;8.00;85.60;;;;;;5072784;28;20227;-73
2021/12/15 08:28:38;;;;;;;31.10;28.70;;;8.00;85.90;;;;;;5072931;28;20284;-72
2021/12/15 08:31:05;;;;;;;34.00;31.15;;;8.00;85.80;;;;;;5072976;28;20231;-72
2021/12/15 08:33:35;;;;;;;30.20;28.10;;;8.10;85.00;;;;;;5073064;28;20251;-72
2021/12/15 08:36:04;;;;;;;31.25;28.65;;;8.00;85.40;;;;;;5072851;28;20234;-72
2021/12/15 08:38:34;;;;;;;30.52;28.10;;;8.20;85.10;;;;;;5072772;28;20286;-72
2021/12/15 08:41:04;;;;;;;31.63;29.27;;;8.10;85.20;;;;;;5071781;28;20212;-72
2021/12/15 08:43:32;;;;;;;31.05;28.80;;;8.20;85.20;;;;;;5072071;28;20255;-72
2021/12/15 08:46:03;;;;;;;29.08;26.98;;;8.20;86.50;;;;;;5072925;28;20235;-73
2021/12/15 08:48:32;;;;;;;29.25;27.40;;;8.20;85.70;;;;;;5072471;28;20299;-72
2021/12/15 08:51:01;;;;;;;29.52;27.42;;;8.10;84.50;;;;;;5072582;28;20231;-72
2021/12/15 08:53:28;;;;;;;28.65;26.58;;;8.10;84.50;;;;;;5072273;28;20410;-72
2021/12/15 08:55:56;;;;;;;28.23;26.42;;;8.20;84.10;;;;;;5072478;28;20200;-72
2021/12/15 08:58:26;;;;;;;28.88;26.90;;;8.20;84.20;;;;;;5072587;28;20246;-73
2021/12/15 09:00:56;;;;;;;28.80;26.90;;;8.20;85.90;;;;;;5072431;28;20633;-73
2021/12/15 09:03:23;;;;;;;28.17;26.38;;;8.30;84.70;;;;;;5072399;28;20470;-72
2021/12/15 09:05:53;;;;;;;28.55;26.70;;;8.30;84.00;;;;;;5072387;28;20279;-72
2021/12/15 09:08:23;;;;;;;28.45;26.52;;;8.30;83.50;;;;;;5072602;28;20235;-72
2021/12/15 09:10:52;;;;;;;28.48;26.42;;;8.40;83.30;;;;;;5072393;28;20192;-72
2021/12/15 09:13:19;;;;;;;27.98;26.17;;;8.30;82.90;;;;;;5072148;28;20327;-72
2021/12/15 09:15:46;;;;;;;28.03;26.23;;;8.40;82.80;;;;;;5072330;28;20291;-72
2021/12/15 09:18:14;;;;;;;29.17;27.08;;;8.60;82.50;;;;;;5072138;28;20533;-72
2021/12/15 09:20:43;;;;;;;28.55;26.75;;;8.60;82.80;;;;;;5072101;28;20237;-72
2021/12/15 09:23:14;;;;;;;27.25;25.35;;;8.60;82.00;;;;;;5072024;28;20227;-73
2021/12/15 09:25:43;;;;;;;27.20;25.45;;;8.50;81.80;;;;;;5072142;28;20658;-72
2021/12/15 09:28:10;;;;;;;27.67;25.90;;;8.40;82.50;;;;;;5072148;28;20286;-73
2021/12/15 09:30:43;;;;;;;28.97;27.07;;;8.30;82.20;;;;;;5072050;28;20482;-72
2021/12/15 09:33:11;;;;;;;29.73;27.63;;;8.40;82.30;;;;;;5071954;28;20469;-72
2021/12/15 09:35:38;;;;;;;29.50;27.50;;;8.50;82.20;;;;;;5072201;28;20282;-72
2021/12/15 09:38:05;;;;;;;26.55;24.80;;;8.50;82.70;;;;;;5072133;28;20827;-73
2021/12/15 09:40:32;;;;;;;27.38;25.45;;;8.50;82.30;;;;;;5071840;28;20284;-73
2021/12/15 09:43:03;;;;;;;28.33;26.43;;;8.40;82.00;;;;;;5071405;28;20246;-73
2021/12/15 09:45:40;;;;;;;27.65;25.95;;;8.50;81.90;;;;;;5071974;28;20963;-73
2021/12/15 09:57:01;;;;;;;26.10;24.52;;;8.20;81.40;;;;;;5075833;28;20502;-73
2021/12/15 10:05:10;;;;;;;29.00;27.40;;;8.30;82.00;;;;;;5064483;28;20341;-72
2021/12/15 10:10:49;;;;;;;25.73;24.10;;;8.40;81.40;;;;;;5057579;28;20195;-73
2021/12/15 10:19:21;;;;;;;30.63;28.45;;;8.20;81.40;;;;;;5075368;28;20558;-72
2021/12/15 10:22:12;;;;;;;28.42;26.50;;;8.30;81.80;;;;;;5075240;28;20302;-72
2021/12/15 10:24:47;;;;;;;29.48;27.55;;;8.30;82.30;;;;;;5075248;28;20216;-72
2021/12/15 10:27:18;;;;;;;28.33;26.42;;;8.40;81.60;;;;;;5075898;28;20290;-72
2021/12/15 10:30:00;;;;;;;28.73;26.90;;;8.40;81.60;;;;;;5075294;28;20279;-72
2021/12/15 10:32:34;;;;;;;29.40;27.40;;;8.50;81.40;;;;;;5075058;28;20644;-73
2021/12/15 10:35:06;;;;;;;28.30;26.40;;;8.40;81.00;;;;;;5074938;28;20219;-73
2021/12/15 10:37:33;;;;;;;29.15;27.25;;;8.30;82.20;;;;;;5075031;28;20223;-73
2021/12/15 10:40:13;;;;;;;29.73;27.77;;;8.40;81.40;;;;;;5074971;28;20239;-72
2021/12/15 10:42:41;;;;;;;29.40;27.53;;;8.30;81.40;;;;;;5074387;28;20251;-73
2021/12/15 10:45:11;;;;;;;31.23;29.33;;;8.20;81.60;;;;;;5074782;28;20547;-73
2021/12/15 10:47:44;;;;;;;31.58;29.73;;;8.30;81.80;;;;;;5074940;28;20238;-72
2021/12/15 10:50:20;;;;;;;28.90;26.88;;;8.30;81.10;;;;;;5074435;28;20196;-72
2021/12/15 10:52:57;;;;;;;27.42;25.58;;;8.20;84.40;;;;;;5074661;28;20192;-73
2021/12/15 10:55:35;;;;;;;27.55;25.70;;;8.10;83.40;;;;;;5074788;28;20231;-72
2021/12/15 10:58:23;;;;;;;28.77;26.77;;;8.30;82.50;;;;;;5074753;28;20736;-72
2021/12/15 11:00:50;;;;;;;28.45;26.65;;;8.30;82.20;;;;;;5074367;28;20537;-72
2021/12/15 11:03:23;;;;;;;28.00;26.13;;;8.40;81.40;;;;;;5073594;28;20728;-72
2021/12/15 11:05:50;;;;;;;29.93;27.93;;;8.40;81.30;;;;;;5074591;28;20978;-73
2021/12/15 11:08:21;;;;;;;29.27;27.30;;;8.40;81.40;;;;;;5074390;28;20450;-73
2021/12/15 11:10:50;;;;;;;29.90;27.90;;;8.50;81.60;;;;;;5074240;28;20552;-72
2021/12/15 11:13:18;;;;;;;29.35;27.25;;;8.50;82.00;;;;;;5074120;28;20631;-73
2021/12/15 11:15:47;;;;;;;27.95;26.25;;;8.60;81.40;;;;;;5074312;28;20287;-72
2021/12/15 11:18:17;;;;;;;27.60;25.90;;;8.50;80.80;;;;;;5074120;28;20232;-73
2021/12/15 11:20:48;;;;;;;28.65;26.95;;;8.40;80.70;;;;;;5074239;28;20960;-72
2021/12/15 11:23:16;;;;;;;26.77;24.98;;;8.50;80.60;;;;;;5073973;28;20259;-72
2021/12/15 11:25:46;;;;;;;28.33;26.73;;;8.40;81.40;;;;;;5074352;28;20238;-72
2021/12/15 11:28:19;;;;;;;27.35;25.70;;;8.40;84.50;;;;;;5074238;28;20830;-72
2021/12/15 11:30:52;;;;;;;27.83;26.10;;;8.50;83.90;;;;;;5074286;28;20200;-72
2021/12/15 11:33:21;;;;;;;27.17;25.38;;;8.50;82.30;;;;;;5073857;28;20549;-72
2021/12/15 11:35:56;;;;;;;26.73;25.00;;;8.60;81.10;;;;;;5074119;28;20355;-72
2021/12/15 11:38:25;;;;;;;25.83;24.13;;;8.60;80.40;;;;;;5074074;28;20848;-72
2021/12/15 11:41:04;;;;;;;27.67;25.95;;;8.60;80.80;;;;;;5073614;28;20884;-72
2021/12/15 11:43:42;;;;;;;27.13;25.33;;;8.50;81.00;;;;;;5073467;28;20223;-72
2021/12/15 11:46:28;;;;;;;27.50;25.60;;;8.50;82.70;;;;;;5073794;28;20455;-72
2021/12/15 11:48:59;;;;;;;26.90;25.13;;;8.40;82.90;;;;;;5073540;28;20454;-73
2021/12/15 11:51:38;;;;;;;29.17;27.17;;;8.50;82.20;;;;;;5073673;28;20446;-72
2021/12/15 11:54:15;;;;;;;27.20;25.40;;;8.70;80.10;;;;;;5073263;28;20496;-72
2021/12/15 11:56:42;;;;;;;27.80;26.00;;;8.50;83.40;;;;;;5073524;28;20545;-72
2021/12/15 11:59:23;;;;;;;27.13;25.53;;;8.40;81.90;;;;;;5073822;28;20280;-72
2021/12/15 12:01:54;;;;;;;27.40;25.60;;;8.50;81.80;;;;;;5073912;28;20482;-72
2021/12/15 12:04:25;;;;;;;26.98;25.23;;;8.60;80.50;;;;;;5073380;28;20216;-72
2021/12/15 12:06:58;;;;;;;27.60;25.90;;;8.50;80.50;;;;;;5073473;28;20222;-72
2021/12/15 12:09:26;;;;;;;27.83;25.95;;;8.50;80.50;;;;;;5073245;28;20214;-72
2021/12/15 12:11:58;;;;;;;28.60;26.67;;;8.60;80.10;;;;;;5073313;28;20242;-72
2021/12/15 12:17:12;;;;;;;28.88;26.85;;;8.50;80.80;;;;;;5064037;28;20450;-72
2021/12/15 12:19:49;;;;;;;36.13;33.33;;;8.60;80.40;;;;;;5073059;28;20246;-72
2021/12/15 12:22:19;;;;;;;38.20;35.37;;;8.50;80.80;;;;;;5072959;28;20564;-72
2021/12/15 12:24:49;;;;;;;30.53;28.53;;;8.40;80.60;;;;;;5072804;28;20482;-72
2021/12/15 12:27:16;;;;;;;28.05;26.25;;;8.50;80.60;;;;;;5072981;28;20461;-72
2021/12/15 12:29:44;;;;;;;29.70;27.80;;;8.60;79.90;;;;;;5072887;28;20287;-72
2021/12/15 12:32:11;;;;;;;29.35;27.48;;;8.70;79.40;;;;;;5072852;28;20525;-72
2021/12/15 12:34:40;;;;;;;27.30;25.70;;;8.70;79.30;;;;;;5072771;28;20219;-72
2021/12/15 12:37:08;;;;;;;28.25;26.55;;;8.60;79.50;;;;;;5072872;28;20274;-72
2021/12/15 12:39:38;;;;;;;30.20;28.20;;;8.40;80.20;;;;;;5072620;28;20212;-72
2021/12/15 12:42:07;;;;;;;30.38;28.48;;;8.30;80.10;;;;;;5072615;28;20893;-72
2021/12/15 12:44:42;;;;;;;30.00;28.10;;;8.30;80.30;;;;;;5072140;28;20216;-72
2021/12/15 12:47:26;;;;;;;30.67;28.83;;;8.20;80.50;;;;;;5072791;28;20454;-72
2021/12/15 12:50:16;;;;;;;31.63;29.70;;;8.20;80.50;;;;;;5072426;28;20669;-72
2021/12/15 13:01:21;;;;;;;28.90;27.13;;;8.30;82.40;;;;;;5072829;28;20672;-72
2021/12/15 13:03:53;;;;;;;27.70;26.00;;;8.40;81.80;;;;;;5072136;28;20227;-72
2021/12/15 13:06:23;;;;;;;26.65;25.15;;;8.30;82.90;;;;;;5072583;28;20672;-72
2021/12/15 13:08:55;;;;;;;27.40;25.70;;;8.30;82.20;;;;;;5072454;28;20282;-72
2021/12/15 13:11:34;;;;;;;28.92;27.17;;;8.40;81.40;;;;;;5072481;28;20198;-72
2021/12/15 13:14:05;;;;;;;27.48;25.88;;;8.30;81.30;;;;;;5072227;28;20219;-72
2021/12/15 13:16:42;;;;;;;28.00;26.40;;;8.20;81.60;;;;;;5072394;28;20625;-72
2021/12/15 13:19:17;;;;;;;29.02;27.23;;;8.20;82.50;;;;;;5072304;28;20203;-72
2021/12/15 13:22:17;;;;;;;28.63;26.92;;;8.10;83.80;;;;;;5072263;28;20227;-72
2021/12/15 13:30:39;;;;;;;29.35;27.33;;;7.70;82.30;;;;;;5076702;28;20668;-72
2021/12/15 13:33:14;;;;;;;28.00;26.30;;;7.80;82.30;;;;;;5076331;28;20283;-72
2021/12/15 13:35:45;;;;;;;28.10;26.40;;;7.80;82.60;;;;;;5076290;28;20206;-72
2021/12/15 13:38:13;;;;;;;28.90;27.05;;;7.90;82.70;;;;;;5076177;28;20207;-72
2021/12/15 13:40:53;;;;;;;31.00;29.20;;;8.00;82.70;;;;;;5075865;28;20206;-72
2021/12/15 13:43:38;;;;;;;29.52;27.83;;;8.00;82.00;;;;;;5075455;28;20227;-72
2021/12/15 13:46:07;;;;;;;29.63;27.88;;;8.00;82.00;;;;;;5076127;28;20307;-72
2021/12/15 13:48:57;;;;;;;28.30;26.60;;;7.90;82.10;;;;;;5075580;28;20560;-72
2021/12/15 13:52:10;;;;;;;29.50;27.70;;;8.00;82.30;;;;;;5075957;28;20290;-72
2021/12/15 13:54:58;;;;;;;28.60;26.80;;;7.90;83.60;;;;;;5039581;28;20289;-72
2021/12/15 13:57:29;;;;;;;29.40;27.50;;;8.00;82.70;;;;;;5075709;28;20204;-72
2021/12/15 14:00:19;;;;;;;28.75;27.02;;;8.00;82.00;;;;;;5075667;28;20302;-72
2021/12/15 14:02:58;;;;;;;27.73;26.13;;;8.20;81.60;;;;;;5075410;28;20659;-72
2021/12/15 14:05:28;;;;;;;29.58;27.67;;;8.10;81.60;;;;;;5075739;28;20234;-72
2021/12/15 14:08:00;;;;;;;29.75;27.70;;;8.00;83.00;;;;;;5075455;28;20202;-72
2021/12/15 14:10:53;;;;;;;29.52;27.63;;;8.00;83.30;;;;;;5075558;28;20203;-72